General Aviation Weather

Text Reports

Enter one or more of the following location identifiers separated by a space:

Zip Code, Four-Character ICAO or Three-Character IATA airport codes.

METAR - Aviation Routine Weather Report
KCTZ - Clinton, North Carolina
Updated at 6:15 AM GMT on September 01, 2015 (2:15 AM EDT):
METAR KCTZ 010615Z AUTO 25003KT 1 1/2SM BR OVC001 23/23 A3006 RMK AO2 T02300230
TAF - Terminal Area Forecast
KCTZ - Clinton, North Carolina
Updated at 6:15 AM GMT on September 01, 2015 (2:15 AM EDT):
No TAF is currently available for this location.
Decoded:
No decoded TAF is available.
PIREP - Pilot Weather Report
KCTZ - Clinton, North Carolina
Updated at 6:15 AM GMT on September 01, 2015 (2:15 AM EDT):
No PIREP is currently available for this location.
AIRMET - Airmens Meteorological Information
KCTZ - Clinton, North Carolina
Updated at 6:15 AM GMT on September 01, 2015 (2:15 AM EDT):
No AIRMET is currently available for this location.
SIGMET - Significant Meteorological Information
KCTZ - Clinton, North Carolina
Updated at 6:15 AM GMT on September 01, 2015 (2:15 AM EDT):
No SIGMET is currently available for this location.
NOTAM - Notice to Airmen
KCTZ - Clinton, North Carolina
Updated at 6:15 AM GMT on September 01, 2015 (2:15 AM EDT):
No NOTAM is currently available for this location.
Forecast Area
KCTZ - Clinton, North Carolina
Updated at 6:15 AM GMT on September 01, 2015 (2:15 AM EDT):
No NOTAM is currently available for this location.
Aviation Weather Maps